Vaughan, Mississippi
Current Conditions -  °F | °C
As of 8:54 AM on Wednesday 22 Oct 2014 (Local Time) from KJAN Reporting Station
Clear Clear  
Wind Chill: 59°   Ceiling: Unl
Heat Index: 59°   Visibility: 10mi
Dew Point: 52°   Wind: 7mph
Humidity: 78%   Direction: 50°NE
Pressure: 30.16"   Gusts: NA
Location:  32.81°N, 90.04°W
Report Text: KJAN 221354Z 05006KT 10SM CLR 15/11 A3016 RMK AO2 SLP213 T01500111
Loading
Personal Weather Stations






























Interactive Weather Map
Tropical Storm Tracking
New forecast layout! Learn more

10-Day Weather Forecast

Advertisements
Track Severe Weather on mobile